sensor_id;sensor_type;location;lat;lon;timestamp;pressure;altitude;pressure_sealevel;temperature;humidity
58622;BME280;44389;51.578;5.456;2023-04-21T00:01:44;101404.22;;;5.87;100.00
58622;BME280;44389;51.578;5.456;2023-04-21T00:04:09;101402.56;;;5.88;100.00
58622;BME280;44389;51.578;5.456;2023-04-21T00:06:37;101395.66;;;5.87;100.00
58622;BME280;44389;51.578;5.456;2023-04-21T00:09:06;101393.03;;;5.85;100.00
58622;BME280;44389;51.578;5.456;2023-04-21T00:11:31;101386.22;;;5.86;100.00
58622;BME280;44389;51.578;5.456;2023-04-21T00:13:56;101388.69;;;5.84;100.00
58622;BME280;44389;51.578;5.456;2023-04-21T00:16:21;101380.16;;;5.84;100.00
58622;BME280;44389;51.578;5.456;2023-04-21T00:18:47;101381.88;;;5.85;100.00
58622;BME280;44389;51.578;5.456;2023-04-21T00:21:12;101379.44;;;5.86;100.00
58622;BME280;44389;51.578;5.456;2023-04-21T00:23:37;101374.34;;;5.86;100.00
58622;BME280;44389;51.578;5.456;2023-04-21T00:26:03;101375.19;;;5.87;100.00
58622;BME280;44389;51.578;5.456;2023-04-21T00:28:28;101370.00;;;5.85;100.00
58622;BME280;44389;51.578;5.456;2023-04-21T00:30:53;101359.78;;;5.85;100.00
58622;BME280;44389;51.578;5.456;2023-04-21T00:33:19;101353.69;;;5.83;100.00
58622;BME280;44389;51.578;5.456;2023-04-21T00:35:45;101362.13;;;5.82;100.00
58622;BME280;44389;51.578;5.456;2023-04-21T00:38:10;101366.53;;;5.85;100.00
58622;BME280;44389;51.578;5.456;2023-04-21T00:40:35;101362.34;;;5.85;100.00
58622;BME280;44389;51.578;5.456;2023-04-21T00:43:00;101360.56;;;5.84;100.00
58622;BME280;44389;51.578;5.456;2023-04-21T00:45:29;101352.88;;;5.84;100.00
58622;BME280;44389;51.578;5.456;2023-04-21T00:47:54;101359.69;;;5.84;100.00
58622;BME280;44389;51.578;5.456;2023-04-21T00:50:20;101359.56;;;5.82;100.00
58622;BME280;44389;51.578;5.456;2023-04-21T00:52:45;101364.69;;;5.82;100.00
58622;BME280;44389;51.578;5.456;2023-04-21T00:55:11;101354.47;;;5.82;100.00
58622;BME280;44389;51.578;5.456;2023-04-21T00:57:37;101351.91;;;5.82;100.00
58622;BME280;44389;51.578;5.456;2023-04-21T01:00:03;101355.28;;;5.81;100.00
58622;BME280;44389;51.578;5.456;2023-04-21T01:02:30;101351.03;;;5.82;100.00
58622;BME280;44389;51.578;5.456;2023-04-21T01:04:55;101348.41;;;5.80;100.00
58622;BME280;44389;51.578;5.456;2023-04-21T01:07:24;101357.22;;;5.85;100.00
58622;BME280;44389;51.578;5.456;2023-04-21T01:09:49;101354.47;;;5.82;100.00
58622;BME280;44389;51.578;5.456;2023-04-21T01:12:14;101351.81;;;5.81;100.00
58622;BME280;44389;51.578;5.456;2023-04-21T01:14:40;101350.16;;;5.81;100.00
58622;BME280;44389;51.578;5.456;2023-04-21T01:17:06;101343.28;;;5.80;100.00
58622;BME280;44389;51.578;5.456;2023-04-21T01:19:41;101346.00;;;5.83;100.00
58622;BME280;44389;51.578;5.456;2023-04-21T01:22:08;101335.69;;;5.82;100.00
58622;BME280;44389;51.578;5.456;2023-04-21T01:27:12;101332.84;;;5.77;100.00
58622;BME280;44389;51.578;5.456;2023-04-21T01:29:40;101326.88;;;5.76;100.00
58622;BME280;44389;51.578;5.456;2023-04-21T01:32:07;101340.25;;;5.87;100.00
58622;BME280;44389;51.578;5.456;2023-04-21T01:34:33;101324.47;;;5.80;100.00
58622;BME280;44389;51.578;5.456;2023-04-21T01:36:58;101327.75;;;5.77;100.00
58622;BME280;44389;51.578;5.456;2023-04-21T01:39:24;101331.91;;;5.75;100.00
58622;BME280;44389;51.578;5.456;2023-04-21T01:41:49;101333.56;;;5.74;100.00
58622;BME280;44389;51.578;5.456;2023-04-21T01:44:14;101325.03;;;5.74;100.00
58622;BME280;44389;51.578;5.456;2023-04-21T01:46:39;101321.47;;;5.72;100.00
58622;BME280;44389;51.578;5.456;2023-04-21T01:49:05;101313.81;;;5.72;100.00
58622;BME280;44389;51.578;5.456;2023-04-21T01:51:30;101310.31;;;5.70;100.00
58622;BME280;44389;51.578;5.456;2023-04-21T01:53:55;101311.09;;;5.69;100.00
58622;BME280;44389;51.578;5.456;2023-04-21T01:56:21;101304.13;;;5.66;100.00
58622;BME280;44389;51.578;5.456;2023-04-21T01:58:46;101294.59;;;5.64;100.00
58622;BME280;44389;51.578;5.456;2023-04-21T02:01:11;101294.59;;;5.64;100.00
58622;BME280;44389;51.578;5.456;2023-04-21T02:03:36;101299.72;;;5.64;100.00
58622;BME280;44389;51.578;5.456;2023-04-21T02:06:02;101292.84;;;5.63;100.00
58622;BME280;44389;51.578;5.456;2023-04-21T02:08:28;101283.50;;;5.63;100.00
58622;BME280;44389;51.578;5.456;2023-04-21T02:10:53;101276.63;;;5.62;100.00
58622;BME280;44389;51.578;5.456;2023-04-21T02:13:18;101277.50;;;5.63;100.00
58622;BME280;44389;51.578;5.456;2023-04-21T02:15:43;101267.25;;;5.63;100.00
58622;BME280;44389;51.578;5.456;2023-04-21T02:18:09;101267.19;;;5.61;100.00
58622;BME280;44389;51.578;5.456;2023-04-21T02:20:34;101271.44;;;5.60;100.00
58622;BME280;44389;51.578;5.456;2023-04-21T02:22:59;101273.78;;;5.57;100.00
58622;BME280;44389;51.578;5.456;2023-04-21T02:25:25;101269.66;;;5.59;100.00
58622;BME280;44389;51.578;5.456;2023-04-21T02:27:50;101260.38;;;5.61;100.00
58622;BME280;44389;51.578;5.456;2023-04-21T02:30:15;101254.94;;;5.55;100.00
58622;BME280;44389;51.578;5.456;2023-04-21T02:32:41;101265.34;;;5.58;100.00
58622;BME280;44389;51.578;5.456;2023-04-21T02:35:07;101264.53;;;5.59;100.00
58622;BME280;44389;51.578;5.456;2023-04-21T02:37:33;101263.75;;;5.60;100.00
58622;BME280;44389;51.578;5.456;2023-04-21T02:39:58;101256.16;;;5.62;100.00
58622;BME280;44389;51.578;5.456;2023-04-21T02:42:23;101252.97;;;5.66;100.00
58622;BME280;44389;51.578;5.456;2023-04-21T02:44:49;101247.78;;;5.65;100.00
58622;BME280;44389;51.578;5.456;2023-04-21T02:47:15;101252.97;;;5.66;100.00
58622;BME280;44389;51.578;5.456;2023-04-21T02:49:41;101250.41;;;5.66;100.00
58622;BME280;44389;51.578;5.456;2023-04-21T02:52:06;101245.38;;;5.68;100.00
58622;BME280;44389;51.578;5.456;2023-04-21T02:54:32;101252.28;;;5.69;100.00
58622;BME280;44389;51.578;5.456;2023-04-21T02:56:57;101254.75;;;5.67;100.00
58622;BME280;44389;51.578;5.456;2023-04-21T02:59:22;101249.56;;;5.66;100.00
58622;BME280;44389;51.578;5.456;2023-04-21T03:01:47;101246.00;;;5.64;100.00
58622;BME280;44389;51.578;5.456;2023-04-21T03:04:13;101235.00;;;5.65;100.00
58622;BME280;44389;51.578;5.456;2023-04-21T03:06:38;101232.44;;;5.65;100.00
58622;BME280;44389;51.578;5.456;2023-04-21T03:09:03;101240.47;;;5.71;100.00
58622;BME280;44389;51.578;5.456;2023-04-21T03:11:29;101241.06;;;5.67;100.00
58622;BME280;44389;51.578;5.456;2023-04-21T03:13:55;101242.75;;;5.66;100.00
58622;BME280;44389;51.578;5.456;2023-04-21T03:16:20;101241.06;;;5.67;100.00
58622;BME280;44389;51.578;5.456;2023-04-21T03:18:45;101240.13;;;5.65;100.00
58622;BME280;44389;51.578;5.456;2023-04-21T03:21:11;101238.50;;;5.67;100.00
58622;BME280;44389;51.578;5.456;2023-04-21T03:23:36;101236.78;;;5.66;100.00
58622;BME280;44389;51.578;5.456;2023-04-21T03:26:07;101248.41;;;5.60;100.00
58622;BME280;44389;51.578;5.456;2023-04-21T03:28:33;101235.91;;;5.50;100.00
58622;BME280;44389;51.578;5.456;2023-04-21T03:30:58;101239.41;;;5.52;100.00
58622;BME280;44389;51.578;5.456;2023-04-21T03:33:24;101232.53;;;5.51;100.00
58622;BME280;44389;51.578;5.456;2023-04-21T03:35:49;101228.50;;;5.40;100.00
58622;BME280;44389;51.578;5.456;2023-04-21T03:38:14;101238.81;;;5.41;100.00
58622;BME280;44389;51.578;5.456;2023-04-21T03:40:39;101236.97;;;5.39;100.00
58622;BME280;44389;51.578;5.456;2023-04-21T03:43:05;101234.84;;;5.32;100.00
58622;BME280;44389;51.578;5.456;2023-04-21T03:45:30;101227.00;;;5.28;100.00
58622;BME280;44389;51.578;5.456;2023-04-21T03:47:56;101232.38;;;5.33;100.00
58622;BME280;44389;51.578;5.456;2023-04-21T03:50:21;101234.06;;;5.33;100.00
58622;BME280;44389;51.578;5.456;2023-04-21T03:52:47;101238.53;;;5.37;100.00
58622;BME280;44389;51.578;5.456;2023-04-21T03:55:12;101230.00;;;5.36;100.00
58622;BME280;44389;51.578;5.456;2023-04-21T03:57:39;101234.22;;;5.36;100.00
58622;BME280;44389;51.578;5.456;2023-04-21T04:00:06;101231.66;;;5.36;100.00
58622;BME280;44389;51.578;5.456;2023-04-21T04:02:31;101229.03;;;5.34;100.00
58622;BME280;44389;51.578;5.456;2023-04-21T04:04:56;101229.94;;;5.35;100.00
58622;BME280;44389;51.578;5.456;2023-04-21T04:07:22;101226.56;;;5.36;100.00
58622;BME280;44389;51.578;5.456;2023-04-21T04:09:47;101229.94;;;5.35;100.00
58622;BME280;44389;51.578;5.456;2023-04-21T04:12:12;101236.97;;;5.39;100.00
58622;BME280;44389;51.578;5.456;2023-04-21T04:14:37;101232.72;;;5.39;100.00
58622;BME280;44389;51.578;5.456;2023-04-21T04:17:03;101235.38;;;5.41;100.00
58622;BME280;44389;51.578;5.456;2023-04-21T04:19:30;101227.09;;;5.45;100.00
58622;BME280;44389;51.578;5.456;2023-04-21T04:21:59;101233.00;;;5.44;100.00
58622;BME280;44389;51.578;5.456;2023-04-21T04:24:25;101237.31;;;5.45;100.00
58622;BME280;44389;51.578;5.456;2023-04-21T04:26:50;101226.38;;;5.48;100.00
58622;BME280;44389;51.578;5.456;2023-04-21T04:29:17;101232.38;;;5.48;100.00
58622;BME280;44389;51.578;5.456;2023-04-21T04:31:44;101242.69;;;5.50;100.00
58622;BME280;44389;51.578;5.456;2023-04-21T04:34:09;101229.38;;;5.55;100.00
58622;BME280;44389;51.578;5.456;2023-04-21T04:36:35;101234.31;;;5.52;100.00
58622;BME280;44389;51.578;5.456;2023-04-21T04:39:00;101234.50;;;5.55;100.00
58622;BME280;44389;51.578;5.456;2023-04-21T04:41:28;101231.03;;;5.55;100.00
58622;BME280;44389;51.578;5.456;2023-04-21T04:43:54;101237.06;;;5.55;100.00
58622;BME280;44389;51.578;5.456;2023-04-21T04:46:21;101238.00;;;5.57;100.00
58622;BME280;44389;51.578;5.456;2023-04-21T04:48:48;101233.66;;;5.56;100.00
58622;BME280;44389;51.578;5.456;2023-04-21T04:51:14;101235.53;;;5.59;100.00
58622;BME280;44389;51.578;5.456;2023-04-21T04:53:39;101232.88;;;5.57;100.00
58622;BME280;44389;51.578;5.456;2023-04-21T04:56:04;101236.22;;;5.56;100.00
58622;BME280;44389;51.578;5.456;2023-04-21T04:58:30;101237.84;;;5.54;100.00
58622;BME280;44389;51.578;5.456;2023-04-21T05:00:55;101246.84;;;5.48;100.00
58622;BME280;44389;51.578;5.456;2023-04-21T05:03:20;101236.25;;;5.41;100.00
58622;BME280;44389;51.578;5.456;2023-04-21T05:05:46;101241.53;;;5.44;100.00
58622;BME280;44389;51.578;5.456;2023-04-21T05:08:11;101252.66;;;5.45;100.00
58622;BME280;44389;51.578;5.456;2023-04-21T05:10:36;101245.59;;;5.56;100.00
58622;BME280;44389;51.578;5.456;2023-04-21T05:13:02;101241.19;;;5.53;100.00
58622;BME280;44389;51.578;5.456;2023-04-21T05:15:27;101253.19;;;5.54;100.00
58622;BME280;44389;51.578;5.456;2023-04-21T05:17:52;101244.09;;;5.59;100.00
58622;BME280;44389;51.578;5.456;2023-04-21T05:20:17;101242.41;;;5.60;100.00
58622;BME280;44389;51.578;5.456;2023-04-21T05:22:43;101248.22;;;5.57;100.00
58622;BME280;44389;51.578;5.456;2023-04-21T05:25:09;101252.38;;;5.55;100.00
58622;BME280;44389;51.578;5.456;2023-04-21T05:27:36;101262.63;;;5.55;100.00
58622;BME280;44389;51.578;5.456;2023-04-21T05:30:01;101255.66;;;5.53;100.00
58622;BME280;44389;51.578;5.456;2023-04-21T05:32:26;101258.91;;;5.50;100.00
58622;BME280;44389;51.578;5.456;2023-04-21T05:34:53;101266.41;;;5.47;100.00
58622;BME280;44389;51.578;5.456;2023-04-21T05:37:18;101271.78;;;5.52;100.00
58622;BME280;44389;51.578;5.456;2023-04-21T05:39:43;101266.91;;;5.56;100.00
58622;BME280;44389;51.578;5.456;2023-04-21T05:42:09;101262.94;;;5.61;100.00
58622;BME280;44389;51.578;5.456;2023-04-21T05:44:35;101274.50;;;5.70;100.00
58622;BME280;44389;51.578;5.456;2023-04-21T05:47:01;101259.50;;;5.76;100.00
58622;BME280;44389;51.578;5.456;2023-04-21T05:49:26;101265.66;;;5.80;100.00
58622;BME280;44389;51.578;5.456;2023-04-21T05:51:51;101267.59;;;5.84;100.00
58622;BME280;44389;51.578;5.456;2023-04-21T05:54:16;101271.81;;;5.83;100.00
58622;BME280;44389;51.578;5.456;2023-04-21T05:56:42;101271.09;;;5.86;100.00
58622;BME280;44389;51.578;5.456;2023-04-21T05:59:07;101272.25;;;5.91;100.00
58622;BME280;44389;51.578;5.456;2023-04-21T06:01:32;101275.84;;;5.94;100.00
58622;BME280;44389;51.578;5.456;2023-04-21T06:03:58;101263.44;;;6.01;100.00
58622;BME280;44389;51.578;5.456;2023-04-21T06:06:25;101270.63;;;6.08;100.00
58622;BME280;44389;51.578;5.456;2023-04-21T06:08:51;101271.78;;;6.13;100.00
58622;BME280;44389;51.578;5.456;2023-04-21T06:11:16;101264.19;;;6.15;100.00
58622;BME280;44389;51.578;5.456;2023-04-21T06:13:41;101258.19;;;6.14;100.00
58622;BME280;44389;51.578;5.456;2023-04-21T06:16:06;101255.09;;;6.20;100.00
58622;BME280;44389;51.578;5.456;2023-04-21T06:18:32;101252.69;;;6.23;100.00
58622;BME280;44389;51.578;5.456;2023-04-21T06:20:57;101257.25;;;6.29;100.00
58622;BME280;44389;51.578;5.456;2023-04-21T06:23:22;101259.09;;;6.31;100.00
58622;BME280;44389;51.578;5.456;2023-04-21T06:25:58;101257.56;;;6.35;100.00
58622;BME280;44389;51.578;5.456;2023-04-21T06:28:24;101259.50;;;6.39;100.00
58622;BME280;44389;51.578;5.456;2023-04-21T06:30:49;101253.75;;;6.43;100.00
58622;BME280;44389;51.578;5.456;2023-04-21T06:33:15;101258.25;;;6.47;100.00
58622;BME280;44389;51.578;5.456;2023-04-21T06:35:40;101268.97;;;6.56;100.00
58622;BME280;44389;51.578;5.456;2023-04-21T06:38:07;101267.53;;;6.62;100.00
58622;BME280;44389;51.578;5.456;2023-04-21T06:40:33;101267.19;;;6.72;100.00
58622;BME280;44389;51.578;5.456;2023-04-21T06:42:58;101267.75;;;6.83;100.00
58622;BME280;44389;51.578;5.456;2023-04-21T06:45:23;101264.56;;;6.87;100.00
58622;BME280;44389;51.578;5.456;2023-04-21T06:47:49;101262.53;;;6.98;100.00
58622;BME280;44389;51.578;5.456;2023-04-21T06:50:14;101263.13;;;7.10;100.00
58622;BME280;44389;51.578;5.456;2023-04-21T06:52:40;101264.56;;;7.21;100.00
58622;BME280;44389;51.578;5.456;2023-04-21T06:55:06;101263.44;;;7.16;100.00
58622;BME280;44389;51.578;5.456;2023-04-21T06:57:31;101268.59;;;7.16;100.00
58622;BME280;44389;51.578;5.456;2023-04-21T06:59:56;101265.53;;;7.23;100.00
58622;BME280;44389;51.578;5.456;2023-04-21T07:02:22;101260.56;;;7.45;100.00
58622;BME280;44389;51.578;5.456;2023-04-21T07:04:47;101263.31;;;7.48;100.00
58622;BME280;44389;51.578;5.456;2023-04-21T07:07:12;101266.88;;;7.51;100.00
58622;BME280;44389;51.578;5.456;2023-04-21T07:09:38;101256.78;;;7.54;100.00
58622;BME280;44389;51.578;5.456;2023-04-21T07:12:03;101257.81;;;7.58;100.00
58622;BME280;44389;51.578;5.456;2023-04-21T07:14:29;101260.44;;;7.60;100.00
58622;BME280;44389;51.578;5.456;2023-04-21T07:16:54;101262.34;;;7.64;100.00
58622;BME280;44389;51.578;5.456;2023-04-21T07:19:21;101264.31;;;7.69;100.00
58622;BME280;44389;51.578;5.456;2023-04-21T07:21:46;101270.50;;;7.73;100.00
58622;BME280;44389;51.578;5.456;2023-04-21T07:24:12;101270.13;;;7.83;100.00
58622;BME280;44389;51.578;5.456;2023-04-21T07:26:37;101266.25;;;7.91;100.00
58622;BME280;44389;51.578;5.456;2023-04-21T07:29:02;101269.38;;;8.04;100.00
58622;BME280;44389;51.578;5.456;2023-04-21T07:31:27;101271.44;;;8.11;100.00
58622;BME280;44389;51.578;5.456;2023-04-21T07:33:53;101260.50;;;8.15;100.00
58622;BME280;44389;51.578;5.456;2023-04-21T07:36:18;101260.50;;;8.35;100.00
58622;BME280;44389;51.578;5.456;2023-04-21T07:38:43;101258.91;;;8.37;100.00
58622;BME280;44389;51.578;5.456;2023-04-21T07:41:12;101260.91;;;8.44;100.00
58622;BME280;44389;51.578;5.456;2023-04-21T07:43:38;101255.78;;;8.44;100.00
58622;BME280;44389;51.578;5.456;2023-04-21T07:46:04;101256.91;;;8.49;100.00
58622;BME280;44389;51.578;5.456;2023-04-21T07:48:30;101260.91;;;8.62;100.00
58622;BME280;44389;51.578;5.456;2023-04-21T07:50:55;101252.19;;;8.78;100.00
58622;BME280;44389;51.578;5.456;2023-04-21T07:53:22;101260.06;;;8.83;100.00
58622;BME280;44389;51.578;5.456;2023-04-21T07:55:47;101255.09;;;8.86;100.00
58622;BME280;44389;51.578;5.456;2023-04-21T07:58:12;101246.31;;;9.02;100.00
58622;BME280;44389;51.578;5.456;2023-04-21T08:00:38;101257.94;;;9.13;100.00
58622;BME280;44389;51.578;5.456;2023-04-21T08:03:03;101256.56;;;9.21;100.00
58622;BME280;44389;51.578;5.456;2023-04-21T08:05:28;101261.16;;;9.29;100.00
58622;BME280;44389;51.578;5.456;2023-04-21T08:07:56;101257.91;;;9.33;100.00
58622;BME280;44389;51.578;5.456;2023-04-21T08:10:21;101254.25;;;9.49;100.00
58622;BME280;44389;51.578;5.456;2023-04-21T08:12:46;101252.22;;;9.63;100.00
58622;BME280;44389;51.578;5.456;2023-04-21T08:15:12;101253.72;;;9.79;100.00
58622;BME280;44389;51.578;5.456;2023-04-21T08:17:37;101251.47;;;9.86;100.00
58622;BME280;44389;51.578;5.456;2023-04-21T08:20:03;101250.06;;;9.95;100.00
58622;BME280;44389;51.578;5.456;2023-04-21T08:22:28;101245.25;;;10.04;100.00
58622;BME280;44389;51.578;5.456;2023-04-21T08:24:54;101246.47;;;10.14;100.00
58622;BME280;44389;51.578;5.456;2023-04-21T08:27:19;101257.66;;;10.14;100.00
58622;BME280;44389;51.578;5.456;2023-04-21T08:29:44;101248.63;;;10.03;100.00
58622;BME280;44389;51.578;5.456;2023-04-21T08:32:10;101247.63;;;10.22;100.00
58622;BME280;44389;51.578;5.456;2023-04-21T08:34:35;101242.91;;;10.33;100.00
58622;BME280;44389;51.578;5.456;2023-04-21T08:37:00;101239.13;;;10.46;100.00
58622;BME280;44389;51.578;5.456;2023-04-21T08:39:25;101236.69;;;10.75;100.00
58622;BME280;44389;51.578;5.456;2023-04-21T08:41:51;101242.59;;;10.96;100.00
58622;BME280;44389;51.578;5.456;2023-04-21T08:44:17;101246.13;;;11.00;100.00
58622;BME280;44389;51.578;5.456;2023-04-21T08:46:44;101240.53;;;11.12;100.00
58622;BME280;44389;51.578;5.456;2023-04-21T08:49:11;101248.06;;;11.31;100.00
58622;BME280;44389;51.578;5.456;2023-04-21T08:51:37;101247.63;;;11.19;99.58
58622;BME280;44389;51.578;5.456;2023-04-21T08:54:02;101255.16;;;11.13;96.62
58622;BME280;44389;51.578;5.456;2023-04-21T08:56:27;101247.88;;;11.27;99.51
58622;BME280;44389;51.578;5.456;2023-04-21T08:58:52;101242.94;;;11.33;99.56
58622;BME280;44389;51.578;5.456;2023-04-21T09:01:18;101243.72;;;11.30;97.85
58622;BME280;44389;51.578;5.456;2023-04-21T09:03:43;101243.56;;;11.26;93.94
58622;BME280;44389;51.578;5.456;2023-04-21T09:06:09;101235.16;;;11.31;95.95
58622;BME280;44389;51.578;5.456;2023-04-21T09:08:41;101237.19;;;11.69;99.98
58622;BME280;44389;51.578;5.456;2023-04-21T09:11:07;101225.13;;;11.68;97.29
58622;BME280;44389;51.578;5.456;2023-04-21T09:13:35;101233.28;;;12.09;98.71
58622;BME280;44389;51.578;5.456;2023-04-21T09:16:02;101233.94;;;12.32;95.17
58622;BME280;44389;51.578;5.456;2023-04-21T09:18:29;101228.19;;;12.73;98.32
58622;BME280;44389;51.578;5.456;2023-04-21T09:21:19;101240.53;;;12.83;92.54
58622;BME280;44389;51.578;5.456;2023-04-21T09:26:12;101228.88;;;13.01;87.69
58622;BME280;44389;51.578;5.456;2023-04-21T09:28:45;101229.03;;;13.06;87.43
58622;BME280;44389;51.578;5.456;2023-04-21T09:31:22;101230.00;;;13.11;86.23
58622;BME280;44389;51.578;5.456;2023-04-21T09:33:55;101225.81;;;13.14;86.54
58622;BME280;44389;51.578;5.456;2023-04-21T09:36:25;101227.47;;;13.47;91.14
58622;BME280;44389;51.578;5.456;2023-04-21T09:39:02;101224.16;;;13.91;84.39
58622;BME280;44389;51.578;5.456;2023-04-21T09:41:29;101220.88;;;13.98;81.21
58622;BME280;44389;51.578;5.456;2023-04-21T09:43:56;101226.81;;;13.94;80.40
58622;BME280;44389;51.578;5.456;2023-04-21T09:46:25;101222.38;;;13.89;82.05
58622;BME280;44389;51.578;5.456;2023-04-21T09:48:54;101226.84;;;14.37;81.89
58622;BME280;44389;51.578;5.456;2023-04-21T09:51:21;101228.53;;;14.79;81.46
58622;BME280;44389;51.578;5.456;2023-04-21T09:53:50;101219.75;;;15.22;78.74
58622;BME280;44389;51.578;5.456;2023-04-21T09:56:20;101223.13;;;15.18;75.37
58622;BME280;44389;51.578;5.456;2023-04-21T09:58:52;101217.28;;;15.31;74.86
58622;BME280;44389;51.578;5.456;2023-04-21T10:01:18;101216.19;;;14.66;73.48
58622;BME280;44389;51.578;5.456;2023-04-21T10:03:43;101218.94;;;14.31;73.65
58622;BME280;44389;51.578;5.456;2023-04-21T10:06:11;101215.22;;;14.62;77.37
58622;BME280;44389;51.578;5.456;2023-04-21T10:08:37;101218.53;;;14.12;74.02
58622;BME280;44389;51.578;5.456;2023-04-21T10:11:03;101210.56;;;14.03;76.11
58622;BME280;44389;51.578;5.456;2023-04-21T10:13:29;101200.75;;;15.26;74.76
58622;BME280;44389;51.578;5.456;2023-04-21T10:16:06;101213.38;;;16.19;71.11
58622;BME280;44389;51.578;5.456;2023-04-21T10:18:44;101198.97;;;16.51;70.02
58622;BME280;44389;51.578;5.456;2023-04-21T10:21:19;101195.38;;;16.39;67.72
58622;BME280;44389;51.578;5.456;2023-04-21T10:23:48;101201.53;;;17.38;67.98
58622;BME280;44389;51.578;5.456;2023-04-21T10:26:23;101202.03;;;18.22;73.62
58622;BME280;44389;51.578;5.456;2023-04-21T10:29:02;101191.69;;;18.81;61.25
58622;BME280;44389;51.578;5.456;2023-04-21T10:34:20;101181.50;;;17.30;61.57
58622;BME280;44389;51.578;5.456;2023-04-21T10:39:51;101175.63;;;16.55;66.67
58622;BME280;44389;51.578;5.456;2023-04-21T10:42:19;101169.00;;;16.04;65.17
58622;BME280;44389;51.578;5.456;2023-04-21T10:47:29;101160.06;;;17.78;61.34
58622;BME280;44389;51.578;5.456;2023-04-21T10:50:10;101156.75;;;18.12;57.86
58622;BME280;44389;51.578;5.456;2023-04-21T10:52:36;101162.34;;;17.24;55.53
58622;BME280;44389;51.578;5.456;2023-04-21T10:57:30;101151.81;;;17.09;60.39
58622;BME280;44389;51.578;5.456;2023-04-21T10:59:56;101150.28;;;16.37;59.88
58622;BME280;44389;51.578;5.456;2023-04-21T11:02:22;101145.03;;;16.31;59.60
58622;BME280;44389;51.578;5.456;2023-04-21T11:04:51;101140.41;;;16.05;59.49
58622;BME280;44389;51.578;5.456;2023-04-21T11:07:18;101138.94;;;16.30;60.71
58622;BME280;44389;51.578;5.456;2023-04-21T11:09:45;101141.81;;;17.82;61.92
58622;BME280;44389;51.578;5.456;2023-04-21T11:12:16;101122.03;;;18.49;58.15
58622;BME280;44389;51.578;5.456;2023-04-21T11:14:44;101132.41;;;18.08;56.80
58622;BME280;44389;51.578;5.456;2023-04-21T11:17:14;101122.63;;;17.63;57.20
58622;BME280;44389;51.578;5.456;2023-04-21T11:19:40;101124.00;;;17.03;55.25
58622;BME280;44389;51.578;5.456;2023-04-21T11:22:06;101118.81;;;17.05;56.46
58622;BME280;44389;51.578;5.456;2023-04-21T11:24:32;101114.13;;;18.05;56.55
58622;BME280;44389;51.578;5.456;2023-04-21T11:26:58;101102.06;;;18.72;53.33
58622;BME280;44389;51.578;5.456;2023-04-21T11:29:26;101097.72;;;18.78;48.73
58622;BME280;44389;51.578;5.456;2023-04-21T11:31:53;101098.56;;;18.67;50.19
58622;BME280;44389;51.578;5.456;2023-04-21T11:34:21;101093.97;;;17.67;51.05
58622;BME280;44389;51.578;5.456;2023-04-21T11:36:49;101097.00;;;16.90;53.74
58622;BME280;44389;51.578;5.456;2023-04-21T11:39:16;101090.56;;;16.50;58.24
58622;BME280;44389;51.578;5.456;2023-04-21T11:41:46;101087.19;;;15.78;58.14
58622;BME280;44389;51.578;5.456;2023-04-21T11:44:13;101076.06;;;16.78;57.65
58622;BME280;44389;51.578;5.456;2023-04-21T11:46:45;101074.53;;;17.02;55.59
58622;BME280;44389;51.578;5.456;2023-04-21T11:49:12;101071.56;;;19.12;53.41
58622;BME280;44389;51.578;5.456;2023-04-21T11:51:39;101068.03;;;20.83;49.51
58622;BME280;44389;51.578;5.456;2023-04-21T11:54:06;101073.03;;;21.07;47.72
58622;BME280;44389;51.578;5.456;2023-04-21T11:56:35;101078.34;;;21.02;48.47
58622;BME280;44389;51.578;5.456;2023-04-21T11:59:06;101073.72;;;21.24;45.92
58622;BME280;44389;51.578;5.456;2023-04-21T12:01:31;101072.66;;;20.47;46.47
58622;BME280;44389;51.578;5.456;2023-04-21T12:03:57;101078.44;;;19.45;48.55
58622;BME280;44389;51.578;5.456;2023-04-21T12:06:25;101072.44;;;18.39;51.18
58622;BME280;44389;51.578;5.456;2023-04-21T12:09:00;101062.00;;;18.12;55.04
58622;BME280;44389;51.578;5.456;2023-04-21T12:11:30;101068.03;;;17.95;54.11
58622;BME280;44389;51.578;5.456;2023-04-21T12:13:56;101055.91;;;18.87;53.20
58622;BME280;44389;51.578;5.456;2023-04-21T12:16:23;101058.31;;;19.61;48.95
58622;BME280;44389;51.578;5.456;2023-04-21T12:18:51;101055.91;;;19.02;47.63
58622;BME280;44389;51.578;5.456;2023-04-21T12:21:16;101038.53;;;18.55;51.55
58622;BME280;44389;51.578;5.456;2023-04-21T12:23:42;101041.97;;;18.85;53.62
58622;BME280;44389;51.578;5.456;2023-04-21T12:26:09;101040.25;;;18.59;52.05
58622;BME280;44389;51.578;5.456;2023-04-21T12:28:34;101041.16;;;18.46;51.55
58622;BME280;44389;51.578;5.456;2023-04-21T12:31:00;101035.06;;;18.31;51.40
58622;BME280;44389;51.578;5.456;2023-04-21T12:33:25;101041.13;;;18.39;52.90
58622;BME280;44389;51.578;5.456;2023-04-21T12:35:51;101039.28;;;17.81;52.57
58622;BME280;44389;51.578;5.456;2023-04-21T12:38:16;101018.34;;;17.58;52.68
58622;BME280;44389;51.578;5.456;2023-04-21T12:40:41;101018.16;;;17.13;52.25
58622;BME280;44389;51.578;5.456;2023-04-21T12:43:06;101027.09;;;17.71;53.49
58622;BME280;44389;51.578;5.456;2023-04-21T12:45:32;101020.97;;;19.31;53.85
58622;BME280;44389;51.578;5.456;2023-04-21T12:47:57;101023.22;;;20.12;50.51
58622;BME280;44389;51.578;5.456;2023-04-21T12:50:23;101015.00;;;20.58;48.41
58622;BME280;44389;51.578;5.456;2023-04-21T12:52:48;101014.00;;;20.68;48.02
58622;BME280;44389;51.578;5.456;2023-04-21T12:55:16;101010.81;;;21.24;47.59
58622;BME280;44389;51.578;5.456;2023-04-21T12:57:41;101017.00;;;20.25;46.31
58622;BME280;44389;51.578;5.456;2023-04-21T13:00:08;101006.16;;;19.39;49.98
58622;BME280;44389;51.578;5.456;2023-04-21T13:02:36;101011.53;;;19.01;49.78